Weather observations for the past three days for
Canby Airfield
Imperial (Metric)
Date Time (cdt) Wind (mph) Vis. (mi.) Weather Sky Cond. Temperature (ºF) Relative Humidity Wind Chill (°F) Heat Index (°F) Pressure Precipitation (in)
Air Dwpt 6 hour altimeter (in) sea level (mb) 1 hr 3 hr 6 hr
Max. Min.
10 10:55 N 13 G 18 10.00 Fair CLR 56.3 27.9 34% 30.17 0.0
10 10:35 NE 12 G 16 10.00 Fair CLR 55.6 28.4 35% 30.17 0.0
10 10:15 N 10 G 17 10.00 Fair CLR 54.9 28.6 37% 30.17 0.0
10 09:55 NE 10 10.00 Fair CLR 53.4 30.2 41% 30.16 0.0
10 09:35 N 8 10.00 Fair CLR 52 30.7 44% 30.16 0.0
10 09:15 N 9 10.00 Fair CLR 50.9 31.1 47% 30.16 0.0
10 08:55 N 8 10.00 Fair CLR 49.5 30.9 49% 47 30.15 0.0
10 08:35 NW 10 10.00 Fair CLR 48.7 30.6 50% 45 30.15 0.0
10 08:15 NW 9 10.00 Fair CLR 49.1 30.4 49% 46 30.14 0.0
10 07:55 NW 12 10.00 Fair CLR 48.2 30.2 50% 44 30.14 0.0
10 07:35 NW 9 10.00 Fair CLR 47.5 29.3 49% 44 30.13 0.0
10 07:15 NW 12 G 22 10.00 Fair CLR 46.9 28.8 49% 42 30.12 0.0
10 06:55 SW 8 10.00 Fair CLR 46.4 27.7 46.4 35.8 48% 43 30.09 0.0
10 06:35 SW 8 10.00 Fair CLR 45.5 27 48% 42 30.09 0.0
10 06:15 SW 10 G 17 10.00 Fair CLR 44.4 26.4 49% 40 30.08 0.0
10 05:55 SW 5 10.00 Fair CLR 42.3 27.1 55% 40 30.08 0.0
10 05:35 SW 3 10.00 Fair CLR 41.5 26.2 55% 30.08 0.0
10 05:15 Calm 10.00 Fair CLR 39.6 26.8 60% 30.07 0.0
10 04:55 Calm 10.00 Fair CLR 40.3 27.1 59% 30.07 0.0
10 04:35 W 6 10.00 Fair CLR 37.6 28 69% 34 30.07 0.0
10 04:15 W 5 10.00 Fair CLR 37.4 28 69% 34 30.07 0.0
10 03:55 NW 3 10.00 Fair CLR 36.3 27.5 70% 30.07 0.0
10 03:35 Calm 10.00 Fair CLR 39.9 27.1 60% 30.06 0.0
10 03:15 SW 3 10.00 Fair CLR 41.4 27.1 57% 30.06 0.0
10 02:55 SW 3 10.00 Fair CLR 41.9 27 55% 30.05 0.0
10 02:35 SW 5 10.00 Fair CLR 41 27.7 59% 38 30.05 0.0
10 02:15 SW 6 10.00 Fair CLR 41 27.7 59% 38 30.05 0.0
10 01:55 SW 7 10.00 Fair CLR 41.4 27.7 58% 37 30.05 0.0
10 01:35 SW 5 10.00 Fair CLR 38.3 28.2 67% 35 30.05 0.0
10 01:15 SW 5 10.00 Fair CLR 38.7 29.1 69% 36 30.05 0.0
10 00:55 SW 5 10.00 Fair CLR 38.8 28.4 59.9 38.8 66% 36 30.05 0.0
10 00:35 Calm 10.00 Fair CLR 39.6 28.4 64% 30.05 0.0
10 00:15 SW 3 10.00 Fair CLR 39.4 28.6 65% 30.04 0.0
09 23:55 W 3 10.00 Fair CLR 41.2 28 60% 30.04 0.0
09 23:35 W 3 10.00 Fair CLR 41.4 26.4 55% 30.04 0.0
09 23:15 W 3 10.00 Fair CLR 41.4 26.2 55% 30.04 0.0
09 22:55 W 3 10.00 Fair CLR 41.9 26.4 54% 30.04 0.0
09 22:35 W 5 10.00 Fair CLR 42.3 26.1 53% 40 30.03 0.0
09 22:15 W 3 10.00 Fair CLR 44.6 24.8 46% 30.03 0.0
09 21:55 Calm 10.00 Fair CLR 46 27.1 48% 30.02 0.0
09 21:35 W 3 10.00 Fair CLR 48.6 23.7 38% 30.01 0.0
09 21:15 NW 5 10.00 Fair CLR 50.9 23.7 35% 30 0.0
09 20:55 NW 5 10.00 Fair CLR 52.9 23.4 32% 29.99 0.0
09 20:35 N 6 10.00 Fair CLR 54.3 23.5 30% 29.99 0.0
09 20:15 N 8 10.00 Fair CLR 56.3 23 28% 29.98 0.0
09 19:55 NW 14 10.00 Fair CLR 57.7 22.5 26% 29.97 0.0
09 19:35 NW 9 G 17 10.00 Fair CLR 58.6 22.6 25% 29.97 0.0
09 19:15 N 13 G 20 10.00 Fair CLR 59.2 22.3 24% 29.96 0.0
09 18:55 N 13 G 18 10.00 Fair CLR 59.9 22.3 60.8 57.2 23% 29.95 0.0
09 18:35 NW 16 G 20 10.00 Fair CLR 60.1 21.9 23% 29.95 0.0
09 18:15 NW 17 G 21 10.00 Fair CLR 60.3 22.6 23% 29.94 0.0
09 17:55 NW 15 G 22 10.00 Fair CLR 60.4 23.4 24% 29.94 0.0
09 17:35 N 13 G 16 10.00 Fair CLR 59.2 23.5 25% 29.94 0.0
09 17:15 NW 16 G 21 10.00 Fair CLR 60.1 22.8 24% 29.94 0.0
09 16:55 NW 12 G 24 10.00 Fair CLR 59.9 22.8 24% 29.94 0.0
09 16:35 NW 15 G 23 10.00 Fair CLR 60.1 22.5 23% 29.94 0.0
09 16:15 NW 14 G 23 10.00 Fair CLR 59.9 23.2 24% 29.93 0.0
09 15:55 NW 14 G 21 10.00 Fair CLR 60.1 23.7 25% 29.93 0.0
09 15:35 NW 17 G 24 10.00 Fair CLR 59.5 23.2 25% 29.93 0.0
09 15:15 N 16 G 22 10.00 Fair CLR 59.4 24.4 26% 29.92 0.0
09 14:55 N 18 G 26 10.00 Fair CLR 59.9 23.7 25% 29.93 0.0
09 14:35 N 20 G 25 10.00 Fair CLR 59.9 26.1 27% 29.92 0.0
09 14:15 NW 20 G 31 10.00 Fair CLR 58.3 25.5 28% 29.92 0.0
09 13:55 N 17 G 26 10.00 Fair CLR 59 26.6 29% 29.92 0.0
09 13:35 NW 21 G 28 10.00 Fair and Breezy CLR 58.5 26.4 29% 29.92 0.0
09 13:15 N 14 G 29 10.00 Fair CLR 57.9 26.1 29% 29.91 0.0
09 12:55 NW 16 G 29 10.00 Fair CLR 57 26.2 58.1 47.7 31% 29.91 0.0
09 12:35 NW 23 G 30 10.00 Fair and Breezy CLR 57.4 26.2 30% 29.9 0.0
09 12:15 N 15 G 24 10.00 Partly Cloudy SCT055 57.4 27.7 32% 29.9 0.0
09 11:55 N 18 G 23 10.00 Partly Cloudy SCT055 57.2 27.7 32% 29.9 0.0
09 11:35 N 14 G 26 10.00 Fair CLR 56.1 27.5 33% 29.89 0.0
09 11:15 N 12 G 26 10.00 Fair CLR 55.9 28.8 35% 29.88 0.0
09 10:55 N 14 G 23 10.00 Fair CLR 55.4 31.3 40% 29.87 0.0
09 10:35 NW 14 10.00 Fair CLR 54.9 32.2 42% 29.87 0.0
09 10:15 NW 16 G 21 10.00 Fair CLR 54 34.3 48% 29.86 0.0
09 09:55 NW 17 G 21 10.00 Partly Cloudy SCT028 SCT033 52.9 36.5 54% 29.85 0.0
09 09:35 N 10 G 21 10.00 Fair CLR 52.7 37.4 56% 29.85 0.0
09 09:15 NW 15 G 20 10.00 Fair CLR 51.1 38.8 63% 29.84 0.0
09 08:55 N 16 G 22 10.00 Partly Cloudy SCT021 50 40.1 69% 45 29.83 0.0
09 08:35 NW 13 10.00 Fair CLR 48.9 42.1 77% 44 29.83 0.0
09 08:15 NW 12 G 20 10.00 Fair CLR 48.4 42.6 81% 44 29.82 0.0
09 07:55 NW 12 G 18 10.00 Fair CLR 48.4 42.8 81% 44 29.81 0.0
09 07:35 NW 15 G 21 10.00 Partly Cloudy SCT013 47.7 42.8 83% 42 29.8 0.0
09 07:15 NW 14 G 21 10.00 Overcast OVC013 47.8 43.2 84% 43 29.79 0.0
09 06:55 NW 13 G 22 10.00 Overcast OVC013 48.2 43.2 54.5 48.2 83% 43 29.77 0.0
09 06:35 N 14 G 20 10.00 Partly Cloudy SCT013 49.3 44.2 83% 45 29.75 0.0
09 06:15 NW 14 G 20 10.00 Fair CLR 50.5 44.6 80% 29.75 0.0
09 05:55 NW 12 G 22 10.00 Mostly Cloudy SCT030 SCT065 BKN120 51.6 44.8 78% 29.73 0.0
09 05:35 W 13 10.00 Mostly Cloudy SCT060 SCT080 BKN090 50.4 45.5 84% 29.73 0.0
09 05:15 SW 5 10.00 Light Drizzle BKN060 BKN070 OVC090 49.1 44.8 85% 48 29.71 0.0
09 04:55 W 5 10.00 Light Rain SCT050 BKN065 OVC080 49.3 44.6 84% 48 29.71 0.0
09 04:35 W 7 10.00 Light Rain SCT065 OVC080 49.3 43.7 81% 47 29.73 0.0
09 04:15 NW 7 10.00 Mostly Cloudy BKN100 BKN110 49.5 43 78% 47 29.73 0.0
09 03:55 NW 7 10.00 Partly Cloudy SCT110 49.6 42.8 77% 47 29.72 0.0
09 03:35 NW 8 10.00 Mostly Cloudy BKN110 50.7 41.9 72% 29.72 0.0
09 03:15 NW 12 10.00 Mostly Cloudy BKN110 51.3 38.7 62% 29.71 0.0
09 02:55 NW 14 G 24 10.00 Partly Cloudy SCT110 53.1 34 48% 29.7 0.0
09 02:35 NW 17 G 30 10.00 Partly Cloudy SCT110 51.6 32 47% 29.66 0.0
09 02:15 SW 8 10.00 Fair CLR 52.7 31.3 44% 29.61 0.0
09 01:55 SW 8 10.00 Fair CLR 52.3 31.6 45% 29.62 0.0
09 01:35 SW 7 10.00 Fair CLR 53.6 31.1 42% 29.62 0.0
09 01:15 SW 8 10.00 Fair CLR 52.7 31.6 45% 29.63 0.0
09 00:55 SW 8 10.00 Fair CLR 53.1 31.1 69.8 51.4 43% 29.64 0.0
09 00:35 SW 9 10.00 Fair CLR 54.3 30.6 40% 29.64 0.0
09 00:15 SW 8 10.00 Fair CLR 53.8 31.3 42% 29.65 0.0
08 23:55 SW 8 10.00 Fair CLR 54.3 30.2 40% 29.66 0.0
08 23:35 SW 6 10.00 Fair CLR 54.3 30.7 41% 29.66 0.0
08 23:15 SW 6 10.00 Fair CLR 53.2 31.1 43% 29.67 0.0
08 22:55 SW 5 10.00 Fair CLR 54.1 31.5 42% 29.68 0.0
08 22:35 SW 6 10.00 Fair CLR 53.8 31.5 43% 29.69 0.0
08 22:15 SW 3 10.00 Fair CLR 51.6 31.8 47% 29.69 0.0
08 21:55 SW 6 10.00 Fair CLR 55.4 29.8 38% 29.7 0.0
08 21:35 W 5 10.00 Fair CLR 56.3 29.5 36% 29.7 0.0
08 21:15 W 3 10.00 Fair CLR 57.9 29.8 34% 29.69 0.0
08 20:55 NW 5 10.00 Fair CLR 59.7 28.9 31% 29.7 0.0
08 20:35 NW 6 10.00 Fair CLR 62.4 29.3 29% 29.69 0.0
08 20:15 NW 8 10.00 Fair CLR 65.7 28 24% 29.69 0.0
08 19:55 NW 9 10.00 Fair CLR 67.1 27.3 22% 29.69 0.0
08 19:35 NW 15 G 21 10.00 Fair CLR 68.2 25.9 20% 29.68 0.0
08 19:15 NW 17 G 24 10.00 Fair CLR 69.3 25.7 19% 29.68 0.0
08 18:55 NW 15 G 24 10.00 Fair CLR 70 24.1 75.2 70 18% 29.67 0.0
08 18:35 NW 22 G 30 10.00 Fair and Breezy CLR 70.7 23.9 17% 29.68 0.0
08 18:15 NW 20 G 32 10.00 Fair CLR 71.1 23.5 17% 29.67 0.0
08 17:55 W 22 G 30 10.00 Fair and Breezy CLR 71.8 23 16% 29.67 0.0
08 17:35 NW 18 G 30 10.00 Fair CLR 71.8 22.8 16% 29.67 0.0
08 17:15 NW 20 G 35 10.00 Fair CLR 72.7 24.1 16% 29.66 0.0
08 16:55 NW 26 G 31 10.00 Partly Cloudy and Windy SCT090 73 27.9 19% 29.66 0.0
08 16:35 NW 21 G 31 10.00 Partly Cloudy and Breezy SCT100 74.3 29.3 19% 29.66 0.0
08 16:15 NW 22 G 33 10.00 Partly Cloudy and Breezy SCT100 73.9 28.6 19% 29.66 0.0
08 15:55 NW 18 G 26 10.00 Partly Cloudy SCT100 74.3 27.5 18% 29.65 0.0
08 15:35 W 18 G 25 10.00 Mostly Cloudy BKN100 73.6 27.9 18% 29.66 0.0
08 15:15 W 20 G 23 10.00 Mostly Cloudy BKN100 72.7 28.2 19% 29.66 0.0
08 14:55 W 12 G 24 10.00 Partly Cloudy SCT100 73 28.4 19% 29.66 0.0
08 14:35 W 18 G 25 10.00 Partly Cloudy SCT100 74.7 28.6 18% 29.67 0.0
08 14:15 NW 20 G 26 10.00 Fair CLR 74.5 27.3 17% 29.67 0.0
08 13:55 W 18 G 28 10.00 Fair CLR 74.3 25 16% 29.68 0.0
08 13:35 NW 20 G 23 10.00 Partly Cloudy SCT110 73.9 24.1 15% 29.68 0.0
08 13:15 W 15 G 22 10.00 Mostly Cloudy SCT100 BKN120 71.8 25.5 18% 29.69 0.0
08 12:55 W 18 G 24 10.00 Mostly Cloudy BKN100 BKN120 70.5 24.4 72.5 51.4 18% 29.7 0.0
08 12:35 NW 14 G 17 10.00 Overcast OVC100 70.9 24.6 18% 29.71 0.0
08 12:15 W 20 G 25 10.00 Overcast SCT090 OVC100 69.8 24.3 18% 29.72 0.0
08 11:55 W 18 G 23 10.00 Overcast SCT090 OVC110 69.1 23.9 18% 29.72 0.0
08 11:35 W 20 G 24 10.00 Partly Cloudy SCT110 71.1 23.4 17% 29.73 0.0
08 11:15 W 10 G 25 10.00 Fair CLR 69.8 22.1 16% 29.73 0.0
08 10:55 W 16 G 23 10.00 Fair CLR 69.1 22.8 17% 29.73 0.0
08 10:35 W 18 G 24 10.00 Fair CLR 68.2 22.3 17% 29.74 0.0
08 10:15 W 14 10.00 Fair CLR 67.1 22.6 18% 29.74 0.0
08 09:55 W 14 G 22 10.00 Fair CLR 65.7 22.8 20% 29.75 0.0
08 09:35 SW 15 G 18 10.00 Fair CLR 64.6 24.4 22% 29.76 0.0
08 09:15 SW 13 10.00 Fair CLR 62.6 25.5 24% 29.76 0.0
08 08:55 W 12 G 17 10.00 Fair CLR 60.8 26.4 27% 29.77 0.0
08 08:35 SW 13 G 18 10.00 Fair CLR 58.3 26.2 29% 29.77 0.0
08 08:15 SW 12 G 20 10.00 Partly Cloudy SCT090 56.8 25.2 30% 29.77 0.0
08 07:55 SW 12 G 16 10.00 Partly Cloudy SCT090 56.1 24.4 29% 29.76 0.0
08 07:35 SW 13 G 18 10.00 Partly Cloudy SCT100 SCT120 52.7 23.5 32% 29.76 0.0
08 07:15 SW 12 G 17 10.00 Mostly Cloudy BKN100 51.8 22.1 31% 29.77 0.0
08 06:55 SW 9 10.00 Overcast OVC100 52.2 21.9 52.2 46.4 31% 29.76 0.0
08 06:35 SW 8 10.00 Overcast OVC100 51.4 22.6 32% 29.77 0.0
08 06:15 SW 10 10.00 Overcast OVC100 52 22.1 31% 29.76 0.0
08 05:55 SW 7 10.00 Overcast OVC100 50.5 23 34% 29.77 0.0
08 05:35 SW 9 10.00 Overcast OVC110 50.2 23.4 35% 29.77 0.0
08 05:15 SW 9 10.00 Partly Cloudy SCT110 49.3 23.7 37% 46 29.77 0.0
08 04:55 SW 7 10.00 Partly Cloudy SCT120 48.2 24.3 39% 46 29.77 0.0
08 04:35 SW 7 10.00 Mostly Cloudy BKN120 47.3 24.3 40% 44 29.77 0.0
08 04:15 SW 6 10.00 Partly Cloudy SCT120 46.6 23.9 41% 44 29.77 0.0
08 03:55 SW 5 10.00 Fair CLR 46.4 24.3 42% 45 29.78 0.0
08 03:35 SW 5 10.00 Fair CLR 46.4 23.5 41% 45 29.78 0.0
08 03:15 SW 3 10.00 Fair CLR 47.5 23.5 39% 29.78 0.0
08 02:55 S 6 10.00 Fair CLR 48.9 21.6 34% 47 29.78 0.0
08 02:35 S 7 10.00 Fair CLR 48.7 22.1 35% 46 29.79 0.0
08 02:15 S 6 10.00 Fair CLR 49.1 22.1 35% 47 29.79 0.0
08 01:55 SW 6 10.00 Fair CLR 47.7 22.5 37% 45 29.8 0.0
08 01:35 S 5 10.00 Fair CLR 46.9 22.5 38% 45 29.8 0.0
08 01:15 S 5 10.00 Fair CLR 47.7 23 38% 46 29.8 0.0
08 00:55 S 6 10.00 Fair CLR 47.3 23.5 62.8 40.5 39% 45 29.81 0.0
08 00:35 SW 6 10.00 Fair CLR 46.8 24.6 42% 44 29.81 0.0
08 00:15 S 6 10.00 Fair CLR 46.2 25 43% 44 29.82 0.0
07 23:55 SW 5 10.00 Fair CLR 43.2 27.9 55% 41 29.82 0.0
07 23:35 W 3 10.00 Fair CLR 43.2 27.1 53% 29.82 0.0
07 23:15 S 5 10.00 Fair CLR 41.4 30.6 66% 39 29.82 0.0
07 22:55 S 3 10.00 Fair CLR 42.1 31.5 66% 29.83 0.0
07 22:35 Calm 10.00 Fair CLR 43.3 29.1 57% 29.83 0.0
07 22:15 Calm 10.00 Fair CLR 45.5 29.7 54% 29.83 0.0
07 21:55 Calm 10.00 Fair CLR 46.9 28.6 49% 29.83 0.0
07 21:35 Calm 10.00 Fair CLR 50.9 22.8 33% 29.83 0.0
07 21:15 Calm 10.00 Fair CLR 52.9 20.5 28% 29.82 0.0
07 20:55 Calm 10.00 Fair CLR 54.9 20.5 26% 29.82 0.0
07 20:35 N 3 10.00 Fair CLR 56.7 19.2 23% 29.82 0.0
07 20:15 N 5 10.00 Fair CLR 58.5 19.4 22% 29.81 0.0
07 19:55 NW 6 10.00 Fair CLR 60.6 18.9 20% 29.8 0.0
07 19:35 NW 7 10.00 Fair CLR 61.7 17.1 18% 29.8 0.0
07 19:15 NW 8 10.00 Fair CLR 62.4 16.7 17% 29.8 0.0
07 18:55 W 10 G 17 10.00 Fair CLR 63 15.8 64.6 57.7 16% 29.81 0.0
07 18:35 N 8 10.00 Fair CLR 63.3 18 17% 29.81 0.0
07 18:15 NW 7 10.00 Fair CLR 63.7 16 16% 29.81 0.0
07 17:55 NW 7 G 21 10.00 Fair CLR 63.5 17.4 17% 29.82 0.0
07 17:35 W 10 10.00 Fair CLR 64 18.1 17% 29.82 0.0
07 17:15 NW 8 G 16 10.00 Fair CLR 63.7 17.6 17% 29.82 0.0
07 16:55 NW 8 10.00 Fair CLR 63.7 18.5 17% 29.82 0.0
07 16:35 W 3 10.00 Fair CLR 63.7 17.2 16% 29.82 0.0
07 16:15 SW 7 10.00 Fair CLR 62.6 16.5 17% 29.83 0.0
07 15:55 NW 12 G 21 10.00 Fair CLR 63.1 15.4 16% 29.83 0.0
07 15:35 NW 14 G 25 10.00 Fair CLR 63.3 14.9 15% 29.84 0.0
07 15:15 NW 13 G 22 10.00 Fair CLR 62.6 14 15% 29.85 0.0
07 14:55 W 10 G 28 10.00 Fair CLR 62.6 15.3 16% 29.85 0.0
07 14:35 SW 12 G 21 10.00 Fair CLR 61.9 14.5 16% 29.85 0.0
07 14:15 SW 14 G 22 10.00 Fair CLR 61.7 17.6 18% 29.85 0.0
07 13:55 W 18 G 26 10.00 Partly Cloudy SCT080 60.8 18.7 19% 29.85 0.0
07 13:35 NW 8 10.00 Partly Cloudy SCT080 58.8 21.9 24% 29.86 0.0
07 13:15 SW 7 10.00 Partly Cloudy SCT080 59 21.4 23% 29.87 0.0
07 12:55 W 8 G 16 10.00 Fair CLR 58.3 20.7 58.5 37.2 23% 29.88 0.0
07 12:35 NW 9 10.00 Fair CLR 57.4 20.5 24% 29.88 0.0
07 12:15 NW 15 G 20 10.00 Fair CLR 57.4 19.9 23% 29.89 0.0
07 11:55 NW 9 10.00 Fair CLR 55.9 21.4 26% 29.89 0.0
07 11:35 NW 3 10.00 Fair CLR 55.8 21.9 27% 29.9 0.0
07 11:15 W 5 10.00 Fair CLR 54.7 23.4 30% 29.9 0.0
Date Time (cdt) Wind (mph) Vis. (mi.) Weather Sky Cond. Air Dwpt Max. Min. Relative Humidity Wind Chill (°F) Heat Index (°F) altimeter (in) sea level (mb) 1 hr 3 hr 6 hr
6 hour
Temperature (ºF) Pressure Precipitation (in)